<?xml version="1.0" encoding="UTF-8" standalone="no" ?>
<gpx xmlns="http://www.topografix.com/GPX/1/1" xmlns:xsi="http://www.w3.org/2001/XMLSchema-instance" xsi:schemaLocation="http://www.topografix.com/GPX/1/1 http://www.topografix.com/GPX/1/1/gpx.xsd" version="1.1" creator="VisuGPX - https://www.visugpx.com">
  <metadata>
    <name>9443896-circuit Jean Marc Boivin</name>
  </metadata>
  <trk>
    <name><![CDATA[9443896-circuit Jean Marc Boivin_1]]></name>
    <trkseg>
      <trkpt lat="46.95976" lon="4.68026">
        <ele>427</ele>
        <time>2020-05-31T11:25:33Z</time>
      </trkpt>
      <trkpt lat="46.95847" lon="4.67928">
        <ele>410</ele>
        <time>2020-05-31T11:28:47Z</time>
      </trkpt>
      <trkpt lat="46.95802" lon="4.67852">
        <ele>406</ele>
        <time>2020-05-31T11:30:19Z</time>
      </trkpt>
      <trkpt lat="46.95776" lon="4.67774">
        <ele>407</ele>
        <time>2020-05-31T11:31:38Z</time>
      </trkpt>
      <trkpt lat="46.95725" lon="4.67722">
        <ele>406</ele>
        <time>2020-05-31T11:33:01Z</time>
      </trkpt>
      <trkpt lat="46.95669" lon="4.67764">
        <ele>406</ele>
        <time>2020-05-31T11:34:25Z</time>
      </trkpt>
      <trkpt lat="46.95633" lon="4.67779">
        <ele>408</ele>
        <time>2020-05-31T11:35:15Z</time>
      </trkpt>
      <trkpt lat="46.95577" lon="4.67838">
        <ele>415</ele>
        <time>2020-05-31T11:36:47Z</time>
      </trkpt>
      <trkpt lat="46.95575" lon="4.67943">
        <ele>419</ele>
        <time>2020-05-31T11:38:22Z</time>
      </trkpt>
      <trkpt lat="46.95523" lon="4.67945">
        <ele>426</ele>
        <time>2020-05-31T11:39:32Z</time>
      </trkpt>
      <trkpt lat="46.95455" lon="4.67939">
        <ele>437</ele>
        <time>2020-05-31T11:41:03Z</time>
      </trkpt>
      <trkpt lat="46.95221" lon="4.67898">
        <ele>463</ele>
        <time>2020-05-31T11:46:17Z</time>
      </trkpt>
      <trkpt lat="46.95118" lon="4.67842">
        <ele>464</ele>
        <time>2020-05-31T11:48:44Z</time>
      </trkpt>
      <trkpt lat="46.95071" lon="4.67793">
        <ele>466</ele>
        <time>2020-05-31T11:50:01Z</time>
      </trkpt>
      <trkpt lat="46.94972" lon="4.67724">
        <ele>476</ele>
        <time>2020-05-31T11:52:27Z</time>
      </trkpt>
      <trkpt lat="46.94852" lon="4.67588">
        <ele>487</ele>
        <time>2020-05-31T11:55:50Z</time>
      </trkpt>
      <trkpt lat="46.9469" lon="4.67475">
        <ele>488</ele>
        <time>2020-05-31T11:59:49Z</time>
      </trkpt>
      <trkpt lat="46.94491" lon="4.67398">
        <ele>482</ele>
        <time>2020-05-31T12:04:24Z</time>
      </trkpt>
      <trkpt lat="46.94404" lon="4.67338">
        <ele>477</ele>
        <time>2020-05-31T12:06:32Z</time>
      </trkpt>
      <trkpt lat="46.94368" lon="4.67307">
        <ele>475</ele>
        <time>2020-05-31T12:07:28Z</time>
      </trkpt>
      <trkpt lat="46.94346" lon="4.67311">
        <ele>477</ele>
        <time>2020-05-31T12:07:57Z</time>
      </trkpt>
      <trkpt lat="46.9434" lon="4.67335">
        <ele>480</ele>
        <time>2020-05-31T12:08:21Z</time>
      </trkpt>
      <trkpt lat="46.94286" lon="4.6732">
        <ele>479</ele>
        <time>2020-05-31T12:09:34Z</time>
      </trkpt>
      <trkpt lat="46.94241" lon="4.67288">
        <ele>479</ele>
        <time>2020-05-31T12:10:41Z</time>
      </trkpt>
      <trkpt lat="46.942" lon="4.672">
        <ele>473</ele>
        <time>2020-05-31T12:12:18Z</time>
      </trkpt>
      <trkpt lat="46.94176" lon="4.67098">
        <ele>471</ele>
        <time>2020-05-31T12:13:56Z</time>
      </trkpt>
      <trkpt lat="46.94133" lon="4.67016">
        <ele>468</ele>
        <time>2020-05-31T12:15:30Z</time>
      </trkpt>
      <trkpt lat="46.94119" lon="4.66955">
        <ele>465</ele>
        <time>2020-05-31T12:16:29Z</time>
      </trkpt>
      <trkpt lat="46.94092" lon="4.66902">
        <ele>465</ele>
        <time>2020-05-31T12:17:29Z</time>
      </trkpt>
      <trkpt lat="46.94068" lon="4.66824">
        <ele>456</ele>
        <time>2020-05-31T12:18:47Z</time>
      </trkpt>
      <trkpt lat="46.94036" lon="4.66769">
        <ele>443</ele>
        <time>2020-05-31T12:19:53Z</time>
      </trkpt>
      <trkpt lat="46.93963" lon="4.66672">
        <ele>431</ele>
        <time>2020-05-31T12:22:04Z</time>
      </trkpt>
      <trkpt lat="46.93919" lon="4.66639">
        <ele>427</ele>
        <time>2020-05-31T12:23:10Z</time>
      </trkpt>
      <trkpt lat="46.93897" lon="4.66671">
        <ele>428</ele>
        <time>2020-05-31T12:23:52Z</time>
      </trkpt>
      <trkpt lat="46.93865" lon="4.66631">
        <ele>426</ele>
        <time>2020-05-31T12:24:48Z</time>
      </trkpt>
      <trkpt lat="46.93718" lon="4.66642">
        <ele>422</ele>
        <time>2020-05-31T12:28:04Z</time>
      </trkpt>
      <trkpt lat="46.93661" lon="4.66698">
        <ele>419</ele>
        <time>2020-05-31T12:29:36Z</time>
      </trkpt>
      <trkpt lat="46.93613" lon="4.66773">
        <ele>418</ele>
        <time>2020-05-31T12:31:10Z</time>
      </trkpt>
      <trkpt lat="46.9355" lon="4.66913">
        <ele>410</ele>
        <time>2020-05-31T12:33:42Z</time>
      </trkpt>
      <trkpt lat="46.93531" lon="4.66909">
        <ele>410</ele>
        <time>2020-05-31T12:34:08Z</time>
      </trkpt>
      <trkpt lat="46.93509" lon="4.66892">
        <ele>411</ele>
        <time>2020-05-31T12:34:41Z</time>
      </trkpt>
      <trkpt lat="46.93469" lon="4.66894">
        <ele>415</ele>
        <time>2020-05-31T12:35:35Z</time>
      </trkpt>
      <trkpt lat="46.9347" lon="4.66931">
        <ele>413</ele>
        <time>2020-05-31T12:36:08Z</time>
      </trkpt>
      <trkpt lat="46.93439" lon="4.66994">
        <ele>412</ele>
        <time>2020-05-31T12:37:19Z</time>
      </trkpt>
      <trkpt lat="46.9341" lon="4.67029">
        <ele>413</ele>
        <time>2020-05-31T12:38:09Z</time>
      </trkpt>
      <trkpt lat="46.93311" lon="4.67355">
        <ele>410</ele>
        <time>2020-05-31T12:43:34Z</time>
      </trkpt>
      <trkpt lat="46.93304" lon="4.67509">
        <ele>401</ele>
        <time>2020-05-31T12:45:55Z</time>
      </trkpt>
      <trkpt lat="46.93325" lon="4.67546">
        <ele>399</ele>
        <time>2020-05-31T12:46:39Z</time>
      </trkpt>
      <trkpt lat="46.93338" lon="4.67601">
        <ele>397</ele>
        <time>2020-05-31T12:47:32Z</time>
      </trkpt>
      <trkpt lat="46.93309" lon="4.67626">
        <ele>398</ele>
        <time>2020-05-31T12:48:17Z</time>
      </trkpt>
      <trkpt lat="46.93263" lon="4.67584">
        <ele>401</ele>
        <time>2020-05-31T12:49:29Z</time>
      </trkpt>
      <trkpt lat="46.93242" lon="4.67596">
        <ele>403</ele>
        <time>2020-05-31T12:49:59Z</time>
      </trkpt>
      <trkpt lat="46.93218" lon="4.67783">
        <ele>422</ele>
        <time>2020-05-31T12:52:53Z</time>
      </trkpt>
      <trkpt lat="46.93163" lon="4.67779">
        <ele>429</ele>
        <time>2020-05-31T12:54:06Z</time>
      </trkpt>
      <trkpt lat="46.9304" lon="4.67895">
        <ele>444</ele>
        <time>2020-05-31T12:57:21Z</time>
      </trkpt>
      <trkpt lat="46.93013" lon="4.67961">
        <ele>444</ele>
        <time>2020-05-31T12:58:31Z</time>
      </trkpt>
      <trkpt lat="46.92978" lon="4.67971">
        <ele>445</ele>
        <time>2020-05-31T12:59:19Z</time>
      </trkpt>
      <trkpt lat="46.92941" lon="4.67955">
        <ele>447</ele>
        <time>2020-05-31T13:00:11Z</time>
      </trkpt>
      <trkpt lat="46.92826" lon="4.6778">
        <ele>451</ele>
        <time>2020-05-31T13:03:52Z</time>
      </trkpt>
      <trkpt lat="46.9277" lon="4.67619">
        <ele>450</ele>
        <time>2020-05-31T13:06:37Z</time>
      </trkpt>
      <trkpt lat="46.92725" lon="4.67564">
        <ele>450</ele>
        <time>2020-05-31T13:07:55Z</time>
      </trkpt>
      <trkpt lat="46.92585" lon="4.67458">
        <ele>452</ele>
        <time>2020-05-31T13:11:25Z</time>
      </trkpt>
      <trkpt lat="46.92482" lon="4.67394">
        <ele>454</ele>
        <time>2020-05-31T13:13:54Z</time>
      </trkpt>
      <trkpt lat="46.92468" lon="4.67361">
        <ele>455</ele>
        <time>2020-05-31T13:14:30Z</time>
      </trkpt>
      <trkpt lat="46.92473" lon="4.67295">
        <ele>456</ele>
        <time>2020-05-31T13:15:30Z</time>
      </trkpt>
      <trkpt lat="46.92505" lon="4.6716">
        <ele>457</ele>
        <time>2020-05-31T13:17:41Z</time>
      </trkpt>
      <trkpt lat="46.92501" lon="4.67045">
        <ele>458</ele>
        <time>2020-05-31T13:19:26Z</time>
      </trkpt>
      <trkpt lat="46.92477" lon="4.66957">
        <ele>460</ele>
        <time>2020-05-31T13:20:52Z</time>
      </trkpt>
      <trkpt lat="46.92442" lon="4.66879">
        <ele>464</ele>
        <time>2020-05-31T13:22:17Z</time>
      </trkpt>
      <trkpt lat="46.92425" lon="4.66794">
        <ele>463</ele>
        <time>2020-05-31T13:23:38Z</time>
      </trkpt>
      <trkpt lat="46.92407" lon="4.66767">
        <ele>464</ele>
        <time>2020-05-31T13:24:12Z</time>
      </trkpt>
      <trkpt lat="46.924" lon="4.66765">
        <ele>464</ele>
        <time>2020-05-31T13:24:22Z</time>
      </trkpt>
      <trkpt lat="46.92377" lon="4.6681">
        <ele>469</ele>
        <time>2020-05-31T13:25:13Z</time>
      </trkpt>
      <trkpt lat="46.92346" lon="4.6682">
        <ele>472</ele>
        <time>2020-05-31T13:25:55Z</time>
      </trkpt>
      <trkpt lat="46.92311" lon="4.66825">
        <ele>475</ele>
        <time>2020-05-31T13:26:42Z</time>
      </trkpt>
      <trkpt lat="46.9227" lon="4.66886">
        <ele>479</ele>
        <time>2020-05-31T13:28:00Z</time>
      </trkpt>
      <trkpt lat="46.92243" lon="4.66881">
        <ele>481</ele>
        <time>2020-05-31T13:28:36Z</time>
      </trkpt>
      <trkpt lat="46.92181" lon="4.6682">
        <ele>485</ele>
        <time>2020-05-31T13:30:16Z</time>
      </trkpt>
      <trkpt lat="46.9214" lon="4.66754">
        <ele>483</ele>
        <time>2020-05-31T13:31:37Z</time>
      </trkpt>
      <trkpt lat="46.92081" lon="4.66733">
        <ele>485</ele>
        <time>2020-05-31T13:32:58Z</time>
      </trkpt>
      <trkpt lat="46.92032" lon="4.66738">
        <ele>490</ele>
        <time>2020-05-31T13:34:04Z</time>
      </trkpt>
      <trkpt lat="46.92013" lon="4.66758">
        <ele>494</ele>
        <time>2020-05-31T13:34:35Z</time>
      </trkpt>
      <trkpt lat="46.92026" lon="4.66828">
        <ele>499</ele>
        <time>2020-05-31T13:35:41Z</time>
      </trkpt>
      <trkpt lat="46.92047" lon="4.66883">
        <ele>502</ele>
        <time>2020-05-31T13:36:39Z</time>
      </trkpt>
      <trkpt lat="46.92024" lon="4.66921">
        <ele>507</ele>
        <time>2020-05-31T13:37:25Z</time>
      </trkpt>
      <trkpt lat="46.92009" lon="4.66919">
        <ele>510</ele>
        <time>2020-05-31T13:37:45Z</time>
      </trkpt>
      <trkpt lat="46.91984" lon="4.66946">
        <ele>508</ele>
        <time>2020-05-31T13:38:27Z</time>
      </trkpt>
      <trkpt lat="46.91933" lon="4.66904">
        <ele>506</ele>
        <time>2020-05-31T13:39:45Z</time>
      </trkpt>
      <trkpt lat="46.91901" lon="4.66755">
        <ele>490</ele>
        <time>2020-05-31T13:42:07Z</time>
      </trkpt>
      <trkpt lat="46.91892" lon="4.66664">
        <ele>484</ele>
        <time>2020-05-31T13:43:31Z</time>
      </trkpt>
      <trkpt lat="46.91893" lon="4.66592">
        <ele>478</ele>
        <time>2020-05-31T13:44:36Z</time>
      </trkpt>
      <trkpt lat="46.91863" lon="4.66543">
        <ele>475</ele>
        <time>2020-05-31T13:45:36Z</time>
      </trkpt>
      <trkpt lat="46.91814" lon="4.66505">
        <ele>475</ele>
        <time>2020-05-31T13:46:50Z</time>
      </trkpt>
      <trkpt lat="46.91747" lon="4.66364">
        <ele>465</ele>
        <time>2020-05-31T13:49:27Z</time>
      </trkpt>
      <trkpt lat="46.91712" lon="4.66261">
        <ele>461</ele>
        <time>2020-05-31T13:51:12Z</time>
      </trkpt>
      <trkpt lat="46.91757" lon="4.66131">
        <ele>452</ele>
        <time>2020-05-31T13:53:25Z</time>
      </trkpt>
      <trkpt lat="46.91823" lon="4.66092">
        <ele>445</ele>
        <time>2020-05-31T13:55:00Z</time>
      </trkpt>
      <trkpt lat="46.91885" lon="4.66066">
        <ele>441</ele>
        <time>2020-05-31T13:56:26Z</time>
      </trkpt>
      <trkpt lat="46.91887" lon="4.66037">
        <ele>439</ele>
        <time>2020-05-31T13:56:52Z</time>
      </trkpt>
      <trkpt lat="46.91813" lon="4.65937">
        <ele>431</ele>
        <time>2020-05-31T13:59:07Z</time>
      </trkpt>
      <trkpt lat="46.91815" lon="4.65837">
        <ele>420</ele>
        <time>2020-05-31T14:00:38Z</time>
      </trkpt>
      <trkpt lat="46.91879" lon="4.65657">
        <ele>410</ele>
        <time>2020-05-31T14:03:43Z</time>
      </trkpt>
      <trkpt lat="46.91876" lon="4.65619">
        <ele>409</ele>
        <time>2020-05-31T14:04:18Z</time>
      </trkpt>
      <trkpt lat="46.91867" lon="4.65584">
        <ele>407</ele>
        <time>2020-05-31T14:04:52Z</time>
      </trkpt>
      <trkpt lat="46.91867" lon="4.6553">
        <ele>405</ele>
        <time>2020-05-31T14:05:41Z</time>
      </trkpt>
      <trkpt lat="46.91876" lon="4.6548">
        <ele>404</ele>
        <time>2020-05-31T14:06:28Z</time>
      </trkpt>
      <trkpt lat="46.91871" lon="4.65432">
        <ele>403</ele>
        <time>2020-05-31T14:07:12Z</time>
      </trkpt>
      <trkpt lat="46.91831" lon="4.65294">
        <ele>399</ele>
        <time>2020-05-31T14:09:29Z</time>
      </trkpt>
      <trkpt lat="46.91745" lon="4.65167">
        <ele>395</ele>
        <time>2020-05-31T14:12:12Z</time>
      </trkpt>
      <trkpt lat="46.91689" lon="4.65044">
        <ele>393</ele>
        <time>2020-05-31T14:14:27Z</time>
      </trkpt>
      <trkpt lat="46.91649" lon="4.64994">
        <ele>392</ele>
        <time>2020-05-31T14:15:37Z</time>
      </trkpt>
      <trkpt lat="46.91574" lon="4.64927">
        <ele>390</ele>
        <time>2020-05-31T14:17:34Z</time>
      </trkpt>
      <trkpt lat="46.91485" lon="4.64918">
        <ele>379</ele>
        <time>2020-05-31T14:19:33Z</time>
      </trkpt>
      <trkpt lat="46.91411" lon="4.64926">
        <ele>367</ele>
        <time>2020-05-31T14:21:12Z</time>
      </trkpt>
      <trkpt lat="46.9135" lon="4.64886">
        <ele>352</ele>
        <time>2020-05-31T14:22:42Z</time>
      </trkpt>
      <trkpt lat="46.91316" lon="4.64894">
        <ele>346</ele>
        <time>2020-05-31T14:23:27Z</time>
      </trkpt>
      <trkpt lat="46.91225" lon="4.64877">
        <ele>328</ele>
        <time>2020-05-31T14:25:30Z</time>
      </trkpt>
      <trkpt lat="46.9118" lon="4.64871">
        <ele>320</ele>
        <time>2020-05-31T14:26:30Z</time>
      </trkpt>
      <trkpt lat="46.91061" lon="4.64823">
        <ele>303</ele>
        <time>2020-05-31T14:29:15Z</time>
      </trkpt>
      <trkpt lat="46.91032" lon="4.64799">
        <ele>298</ele>
        <time>2020-05-31T14:29:59Z</time>
      </trkpt>
      <trkpt lat="46.91013" lon="4.64769">
        <ele>295</ele>
        <time>2020-05-31T14:30:37Z</time>
      </trkpt>
      <trkpt lat="46.90986" lon="4.64748">
        <ele>292</ele>
        <time>2020-05-31T14:31:17Z</time>
      </trkpt>
      <trkpt lat="46.90996" lon="4.6471">
        <ele>291</ele>
        <time>2020-05-31T14:31:55Z</time>
      </trkpt>
      <trkpt lat="46.90855" lon="4.64577">
        <ele>278</ele>
        <time>2020-05-31T14:35:38Z</time>
      </trkpt>
      <trkpt lat="46.90812" lon="4.64569">
        <ele>272</ele>
        <time>2020-05-31T14:36:36Z</time>
      </trkpt>
      <trkpt lat="46.90778" lon="4.64526">
        <ele>265</ele>
        <time>2020-05-31T14:37:36Z</time>
      </trkpt>
      <trkpt lat="46.90751" lon="4.64456">
        <ele>262</ele>
        <time>2020-05-31T14:38:50Z</time>
      </trkpt>
      <trkpt lat="46.90739" lon="4.64507">
        <ele>262</ele>
        <time>2020-05-31T14:39:39Z</time>
      </trkpt>
      <trkpt lat="46.90743" lon="4.64612">
        <ele>262</ele>
        <time>2020-05-31T14:41:15Z</time>
      </trkpt>
      <trkpt lat="46.9073" lon="4.6467">
        <ele>263</ele>
        <time>2020-05-31T14:42:10Z</time>
      </trkpt>
      <trkpt lat="46.90689" lon="4.64687">
        <ele>261</ele>
        <time>2020-05-31T14:43:07Z</time>
      </trkpt>
      <trkpt lat="46.90652" lon="4.64746">
        <ele>260</ele>
        <time>2020-05-31T14:44:20Z</time>
      </trkpt>
      <trkpt lat="46.90626" lon="4.64845">
        <ele>264</ele>
        <time>2020-05-31T14:45:57Z</time>
      </trkpt>
      <trkpt lat="46.90627" lon="4.64901">
        <ele>262</ele>
        <time>2020-05-31T14:46:48Z</time>
      </trkpt>
      <trkpt lat="46.90606" lon="4.65005">
        <ele>257</ele>
        <time>2020-05-31T14:48:27Z</time>
      </trkpt>
      <trkpt lat="46.90593" lon="4.64998">
        <ele>260</ele>
        <time>2020-05-31T14:48:45Z</time>
      </trkpt>
      <trkpt lat="46.9058" lon="4.64884">
        <ele>273</ele>
        <time>2020-05-31T14:50:31Z</time>
      </trkpt>
      <trkpt lat="46.9059" lon="4.64837">
        <ele>272</ele>
        <time>2020-05-31T14:51:15Z</time>
      </trkpt>
      <trkpt lat="46.9054" lon="4.648">
        <ele>284</ele>
        <time>2020-05-31T14:52:30Z</time>
      </trkpt>
      <trkpt lat="46.9045" lon="4.64763">
        <ele>294</ele>
        <time>2020-05-31T14:54:35Z</time>
      </trkpt>
      <trkpt lat="46.90322" lon="4.64581">
        <ele>298</ele>
        <time>2020-05-31T14:58:33Z</time>
      </trkpt>
      <trkpt lat="46.90244" lon="4.64669">
        <ele>299</ele>
        <time>2020-05-31T15:00:45Z</time>
      </trkpt>
      <trkpt lat="46.90211" lon="4.64666">
        <ele>301</ele>
        <time>2020-05-31T15:01:29Z</time>
      </trkpt>
      <trkpt lat="46.90024" lon="4.64748">
        <ele>306</ele>
        <time>2020-05-31T15:05:49Z</time>
      </trkpt>
      <trkpt lat="46.89964" lon="4.64751">
        <ele>309</ele>
        <time>2020-05-31T15:07:09Z</time>
      </trkpt>
      <trkpt lat="46.89783" lon="4.6462">
        <ele>326</ele>
        <time>2020-05-31T15:11:39Z</time>
      </trkpt>
      <trkpt lat="46.89714" lon="4.64512">
        <ele>335</ele>
        <time>2020-05-31T15:13:54Z</time>
      </trkpt>
      <trkpt lat="46.89705" lon="4.64441">
        <ele>339</ele>
        <time>2020-05-31T15:14:59Z</time>
      </trkpt>
      <trkpt lat="46.89727" lon="4.6436">
        <ele>347</ele>
        <time>2020-05-31T15:16:19Z</time>
      </trkpt>
      <trkpt lat="46.89723" lon="4.64322">
        <ele>350</ele>
        <time>2020-05-31T15:16:54Z</time>
      </trkpt>
      <trkpt lat="46.896" lon="4.64108">
        <ele>364</ele>
        <time>2020-05-31T15:21:09Z</time>
      </trkpt>
      <trkpt lat="46.89598" lon="4.64072">
        <ele>367</ele>
        <time>2020-05-31T15:21:42Z</time>
      </trkpt>
      <trkpt lat="46.89609" lon="4.64015">
        <ele>373</ele>
        <time>2020-05-31T15:22:36Z</time>
      </trkpt>
      <trkpt lat="46.89615" lon="4.63897">
        <ele>386</ele>
        <time>2020-05-31T15:24:24Z</time>
      </trkpt>
      <trkpt lat="46.89595" lon="4.6377">
        <ele>394</ele>
        <time>2020-05-31T15:26:23Z</time>
      </trkpt>
      <trkpt lat="46.89562" lon="4.63667">
        <ele>397</ele>
        <time>2020-05-31T15:28:06Z</time>
      </trkpt>
      <trkpt lat="46.89465" lon="4.63538">
        <ele>400</ele>
        <time>2020-05-31T15:31:01Z</time>
      </trkpt>
      <trkpt lat="46.89383" lon="4.6339">
        <ele>401</ele>
        <time>2020-05-31T15:33:55Z</time>
      </trkpt>
      <trkpt lat="46.89367" lon="4.63338">
        <ele>401</ele>
        <time>2020-05-31T15:34:47Z</time>
      </trkpt>
      <trkpt lat="46.89366" lon="4.63273">
        <ele>403</ele>
        <time>2020-05-31T15:35:46Z</time>
      </trkpt>
      <trkpt lat="46.89425" lon="4.63146">
        <ele>404</ele>
        <time>2020-05-31T15:38:06Z</time>
      </trkpt>
      <trkpt lat="46.89439" lon="4.63079">
        <ele>403</ele>
        <time>2020-05-31T15:39:10Z</time>
      </trkpt>
      <trkpt lat="46.89429" lon="4.62937">
        <ele>402</ele>
        <time>2020-05-31T15:41:20Z</time>
      </trkpt>
      <trkpt lat="46.89408" lon="4.62822">
        <ele>401</ele>
        <time>2020-05-31T15:43:09Z</time>
      </trkpt>
      <trkpt lat="46.89428" lon="4.62822">
        <ele>402</ele>
        <time>2020-05-31T15:43:36Z</time>
      </trkpt>
      <trkpt lat="46.8951" lon="4.62765">
        <ele>404</ele>
        <time>2020-05-31T15:45:37Z</time>
      </trkpt>
      <trkpt lat="46.89595" lon="4.62764">
        <ele>404</ele>
        <time>2020-05-31T15:47:30Z</time>
      </trkpt>
      <trkpt lat="46.89627" lon="4.62782">
        <ele>403</ele>
        <time>2020-05-31T15:48:16Z</time>
      </trkpt>
      <trkpt lat="46.89648" lon="4.62773">
        <ele>403</ele>
        <time>2020-05-31T15:48:45Z</time>
      </trkpt>
      <trkpt lat="46.89769" lon="4.62671">
        <ele>402</ele>
        <time>2020-05-31T15:51:52Z</time>
      </trkpt>
      <trkpt lat="46.89892" lon="4.6254">
        <ele>402</ele>
        <time>2020-05-31T15:55:15Z</time>
      </trkpt>
      <trkpt lat="46.90039" lon="4.62019">
        <ele>413</ele>
        <time>2020-05-31T16:03:49Z</time>
      </trkpt>
      <trkpt lat="46.90131" lon="4.61836">
        <ele>432</ele>
        <time>2020-05-31T16:07:16Z</time>
      </trkpt>
      <trkpt lat="46.90141" lon="4.61758">
        <ele>448</ele>
        <time>2020-05-31T16:08:28Z</time>
      </trkpt>
      <trkpt lat="46.9012" lon="4.6165">
        <ele>463</ele>
        <time>2020-05-31T16:10:10Z</time>
      </trkpt>
      <trkpt lat="46.90123" lon="4.61583">
        <ele>471</ele>
        <time>2020-05-31T16:11:12Z</time>
      </trkpt>
      <trkpt lat="46.90135" lon="4.61539">
        <ele>477</ele>
        <time>2020-05-31T16:11:55Z</time>
      </trkpt>
      <trkpt lat="46.90262" lon="4.61344">
        <ele>520</ele>
        <time>2020-05-31T16:16:00Z</time>
      </trkpt>
      <trkpt lat="46.90284" lon="4.61355">
        <ele>520</ele>
        <time>2020-05-31T16:16:31Z</time>
      </trkpt>
      <trkpt lat="46.90296" lon="4.61346">
        <ele>523</ele>
        <time>2020-05-31T16:16:49Z</time>
      </trkpt>
      <trkpt lat="46.90298" lon="4.6131">
        <ele>527</ele>
        <time>2020-05-31T16:17:22Z</time>
      </trkpt>
      <trkpt lat="46.90293" lon="4.61293">
        <ele>528</ele>
        <time>2020-05-31T16:17:39Z</time>
      </trkpt>
      <trkpt lat="46.90296" lon="4.6119">
        <ele>535</ele>
        <time>2020-05-31T16:19:13Z</time>
      </trkpt>
      <trkpt lat="46.90311" lon="4.6114">
        <ele>536</ele>
        <time>2020-05-31T16:20:03Z</time>
      </trkpt>
      <trkpt lat="46.90295" lon="4.61121">
        <ele>534</ele>
        <time>2020-05-31T16:20:31Z</time>
      </trkpt>
      <trkpt lat="46.9028" lon="4.61117">
        <ele>533</ele>
        <time>2020-05-31T16:20:51Z</time>
      </trkpt>
      <trkpt lat="46.9026" lon="4.61023">
        <ele>529</ele>
        <time>2020-05-31T16:22:21Z</time>
      </trkpt>
      <trkpt lat="46.90271" lon="4.60934">
        <ele>523</ele>
        <time>2020-05-31T16:23:43Z</time>
      </trkpt>
      <trkpt lat="46.90261" lon="4.60868">
        <ele>514</ele>
        <time>2020-05-31T16:24:45Z</time>
      </trkpt>
      <trkpt lat="46.90247" lon="4.60861">
        <ele>512</ele>
        <time>2020-05-31T16:25:05Z</time>
      </trkpt>
      <trkpt lat="46.90253" lon="4.6083">
        <ele>508</ele>
        <time>2020-05-31T16:25:34Z</time>
      </trkpt>
      <trkpt lat="46.90283" lon="4.60802">
        <ele>505</ele>
        <time>2020-05-31T16:26:21Z</time>
      </trkpt>
      <trkpt lat="46.90336" lon="4.60793">
        <ele>506</ele>
        <time>2020-05-31T16:27:33Z</time>
      </trkpt>
      <trkpt lat="46.90375" lon="4.6075">
        <ele>502</ele>
        <time>2020-05-31T16:28:38Z</time>
      </trkpt>
      <trkpt lat="46.90423" lon="4.60747">
        <ele>503</ele>
        <time>2020-05-31T16:29:42Z</time>
      </trkpt>
      <trkpt lat="46.90463" lon="4.60769">
        <ele>506</ele>
        <time>2020-05-31T16:30:39Z</time>
      </trkpt>
      <trkpt lat="46.90493" lon="4.60635">
        <ele>483</ele>
        <time>2020-05-31T16:32:47Z</time>
      </trkpt>
      <trkpt lat="46.90465" lon="4.60506">
        <ele>464</ele>
        <time>2020-05-31T16:34:51Z</time>
      </trkpt>
      <trkpt lat="46.9043" lon="4.60311">
        <ele>437</ele>
        <time>2020-05-31T16:37:55Z</time>
      </trkpt>
      <trkpt lat="46.90423" lon="4.6014">
        <ele>420</ele>
        <time>2020-05-31T16:40:31Z</time>
      </trkpt>
      <trkpt lat="46.90453" lon="4.59988">
        <ele>404</ele>
        <time>2020-05-31T16:42:55Z</time>
      </trkpt>
      <trkpt lat="46.90486" lon="4.59901">
        <ele>397</ele>
        <time>2020-05-31T16:44:26Z</time>
      </trkpt>
      <trkpt lat="46.90504" lon="4.59841">
        <ele>393</ele>
        <time>2020-05-31T16:45:26Z</time>
      </trkpt>
      <trkpt lat="46.90605" lon="4.59727">
        <ele>379</ele>
        <time>2020-05-31T16:48:16Z</time>
      </trkpt>
      <trkpt lat="46.90657" lon="4.59692">
        <ele>375</ele>
        <time>2020-05-31T16:49:32Z</time>
      </trkpt>
      <trkpt lat="46.90725" lon="4.59639">
        <ele>374</ele>
        <time>2020-05-31T16:51:15Z</time>
      </trkpt>
      <trkpt lat="46.90828" lon="4.59615">
        <ele>372</ele>
        <time>2020-05-31T16:53:34Z</time>
      </trkpt>
      <trkpt lat="46.9086" lon="4.5959">
        <ele>371</ele>
        <time>2020-05-31T16:54:23Z</time>
      </trkpt>
      <trkpt lat="46.909" lon="4.59612">
        <ele>372</ele>
        <time>2020-05-31T16:55:20Z</time>
      </trkpt>
      <trkpt lat="46.90993" lon="4.59609">
        <ele>372</ele>
        <time>2020-05-31T16:57:24Z</time>
      </trkpt>
      <trkpt lat="46.9103" lon="4.59496">
        <ele>374</ele>
        <time>2020-05-31T16:59:18Z</time>
      </trkpt>
      <trkpt lat="46.91059" lon="4.59474">
        <ele>376</ele>
        <time>2020-05-31T17:00:02Z</time>
      </trkpt>
      <trkpt lat="46.91093" lon="4.59437">
        <ele>378</ele>
        <time>2020-05-31T17:00:58Z</time>
      </trkpt>
      <trkpt lat="46.91099" lon="4.59384">
        <ele>383</ele>
        <time>2020-05-31T17:01:47Z</time>
      </trkpt>
      <trkpt lat="46.9118" lon="4.5931">
        <ele>390</ele>
        <time>2020-05-31T17:03:54Z</time>
      </trkpt>
      <trkpt lat="46.91217" lon="4.59251">
        <ele>395</ele>
        <time>2020-05-31T17:05:07Z</time>
      </trkpt>
      <trkpt lat="46.91275" lon="4.59189">
        <ele>404</ele>
        <time>2020-05-31T17:06:43Z</time>
      </trkpt>
      <trkpt lat="46.91338" lon="4.5907">
        <ele>421</ele>
        <time>2020-05-31T17:09:01Z</time>
      </trkpt>
      <trkpt lat="46.91489" lon="4.58814">
        <ele>432</ele>
        <time>2020-05-31T17:14:09Z</time>
      </trkpt>
      <trkpt lat="46.91518" lon="4.58818">
        <ele>432</ele>
        <time>2020-05-31T17:14:48Z</time>
      </trkpt>
      <trkpt lat="46.9157" lon="4.58843">
        <ele>431</ele>
        <time>2020-05-31T17:16:01Z</time>
      </trkpt>
      <trkpt lat="46.91596" lon="4.58853">
        <ele>432</ele>
        <time>2020-05-31T17:16:37Z</time>
      </trkpt>
      <trkpt lat="46.91606" lon="4.5887">
        <ele>432</ele>
        <time>2020-05-31T17:16:57Z</time>
      </trkpt>
      <trkpt lat="46.91596" lon="4.58895">
        <ele>431</ele>
        <time>2020-05-31T17:17:23Z</time>
      </trkpt>
      <trkpt lat="46.91608" lon="4.58929">
        <ele>432</ele>
        <time>2020-05-31T17:17:58Z</time>
      </trkpt>
      <trkpt lat="46.91732" lon="4.59024">
        <ele>435</ele>
        <time>2020-05-31T17:21:05Z</time>
      </trkpt>
      <trkpt lat="46.91766" lon="4.59072">
        <ele>437</ele>
        <time>2020-05-31T17:22:08Z</time>
      </trkpt>
      <trkpt lat="46.91852" lon="4.59143">
        <ele>441</ele>
        <time>2020-05-31T17:24:20Z</time>
      </trkpt>
      <trkpt lat="46.92001" lon="4.59249">
        <ele>444</ele>
        <time>2020-05-31T17:28:01Z</time>
      </trkpt>
      <trkpt lat="46.92172" lon="4.59309">
        <ele>445</ele>
        <time>2020-05-31T17:31:56Z</time>
      </trkpt>
      <trkpt lat="46.92246" lon="4.59368">
        <ele>445</ele>
        <time>2020-05-31T17:33:48Z</time>
      </trkpt>
      <trkpt lat="46.92305" lon="4.59455">
        <ele>446</ele>
        <time>2020-05-31T17:35:40Z</time>
      </trkpt>
      <trkpt lat="46.92398" lon="4.59527">
        <ele>447</ele>
        <time>2020-05-31T17:38:00Z</time>
      </trkpt>
      <trkpt lat="46.92504" lon="4.59575">
        <ele>446</ele>
        <time>2020-05-31T17:40:28Z</time>
      </trkpt>
      <trkpt lat="46.92503" lon="4.59638">
        <ele>445</ele>
        <time>2020-05-31T17:41:26Z</time>
      </trkpt>
      <trkpt lat="46.92488" lon="4.59795">
        <ele>441</ele>
        <time>2020-05-31T17:43:50Z</time>
      </trkpt>
      <trkpt lat="46.92507" lon="4.59925">
        <ele>432</ele>
        <time>2020-05-31T17:45:51Z</time>
      </trkpt>
      <trkpt lat="46.92513" lon="4.599">
        <ele>434</ele>
        <time>2020-05-31T17:46:15Z</time>
      </trkpt>
      <trkpt lat="46.92503" lon="4.59986">
        <ele>428</ele>
        <time>2020-05-31T17:47:35Z</time>
      </trkpt>
      <trkpt lat="46.92483" lon="4.60051">
        <ele>425</ele>
        <time>2020-05-31T17:48:40Z</time>
      </trkpt>
      <trkpt lat="46.92464" lon="4.60089">
        <ele>424</ele>
        <time>2020-05-31T17:49:23Z</time>
      </trkpt>
      <trkpt lat="46.92467" lon="4.60149">
        <ele>422</ele>
        <time>2020-05-31T17:50:18Z</time>
      </trkpt>
      <trkpt lat="46.92497" lon="4.60229">
        <ele>422</ele>
        <time>2020-05-31T17:51:41Z</time>
      </trkpt>
      <trkpt lat="46.92514" lon="4.60292">
        <ele>423</ele>
        <time>2020-05-31T17:52:43Z</time>
      </trkpt>
      <trkpt lat="46.92612" lon="4.60257">
        <ele>425</ele>
        <time>2020-05-31T17:54:57Z</time>
      </trkpt>
      <trkpt lat="46.92771" lon="4.60137">
        <ele>430</ele>
        <time>2020-05-31T17:58:56Z</time>
      </trkpt>
      <trkpt lat="46.92782" lon="4.60139">
        <ele>430</ele>
        <time>2020-05-31T17:59:11Z</time>
      </trkpt>
      <trkpt lat="46.92777" lon="4.6052">
        <ele>440</ele>
        <time>2020-05-31T18:04:58Z</time>
      </trkpt>
      <trkpt lat="46.92755" lon="4.60777">
        <ele>473</ele>
        <time>2020-05-31T18:08:54Z</time>
      </trkpt>
      <trkpt lat="46.92804" lon="4.60924">
        <ele>499</ele>
        <time>2020-05-31T18:11:23Z</time>
      </trkpt>
      <trkpt lat="46.92835" lon="4.60968">
        <ele>504</ele>
        <time>2020-05-31T18:12:21Z</time>
      </trkpt>
      <trkpt lat="46.92829" lon="4.61012">
        <ele>507</ele>
        <time>2020-05-31T18:13:02Z</time>
      </trkpt>
      <trkpt lat="46.9282" lon="4.61165">
        <ele>506</ele>
        <time>2020-05-31T18:15:22Z</time>
      </trkpt>
      <trkpt lat="46.92912" lon="4.61263">
        <ele>503</ele>
        <time>2020-05-31T18:17:53Z</time>
      </trkpt>
      <trkpt lat="46.93109" lon="4.61327">
        <ele>480</ele>
        <time>2020-05-31T18:22:23Z</time>
      </trkpt>
      <trkpt lat="46.93064" lon="4.61447">
        <ele>471</ele>
        <time>2020-05-31T18:24:27Z</time>
      </trkpt>
      <trkpt lat="46.9307" lon="4.61494">
        <ele>466</ele>
        <time>2020-05-31T18:25:11Z</time>
      </trkpt>
      <trkpt lat="46.93053" lon="4.61539">
        <ele>460</ele>
        <time>2020-05-31T18:25:58Z</time>
      </trkpt>
      <trkpt lat="46.93092" lon="4.61619">
        <ele>448</ele>
        <time>2020-05-31T18:27:27Z</time>
      </trkpt>
      <trkpt lat="46.93113" lon="4.6167">
        <ele>439</ele>
        <time>2020-05-31T18:28:22Z</time>
      </trkpt>
      <trkpt lat="46.93103" lon="4.61755">
        <ele>426</ele>
        <time>2020-05-31T18:29:40Z</time>
      </trkpt>
      <trkpt lat="46.93063" lon="4.61805">
        <ele>417</ele>
        <time>2020-05-31T18:30:51Z</time>
      </trkpt>
      <trkpt lat="46.93016" lon="4.61823">
        <ele>415</ele>
        <time>2020-05-31T18:31:55Z</time>
      </trkpt>
      <trkpt lat="46.92997" lon="4.61868">
        <ele>409</ele>
        <time>2020-05-31T18:32:44Z</time>
      </trkpt>
      <trkpt lat="46.92986" lon="4.62071">
        <ele>383</ele>
        <time>2020-05-31T18:35:49Z</time>
      </trkpt>
      <trkpt lat="46.92974" lon="4.62219">
        <ele>370</ele>
        <time>2020-05-31T18:38:05Z</time>
      </trkpt>
      <trkpt lat="46.92963" lon="4.62238">
        <ele>367</ele>
        <time>2020-05-31T18:38:28Z</time>
      </trkpt>
      <trkpt lat="46.93003" lon="4.62263">
        <ele>367</ele>
        <time>2020-05-31T18:39:26Z</time>
      </trkpt>
      <trkpt lat="46.93287" lon="4.62199">
        <ele>347</ele>
        <time>2020-05-31T18:45:49Z</time>
      </trkpt>
      <trkpt lat="46.93289" lon="4.62127">
        <ele>353</ele>
        <time>2020-05-31T18:46:55Z</time>
      </trkpt>
      <trkpt lat="46.93357" lon="4.62087">
        <ele>354</ele>
        <time>2020-05-31T18:48:33Z</time>
      </trkpt>
      <trkpt lat="46.93516" lon="4.61907">
        <ele>366</ele>
        <time>2020-05-31T18:53:01Z</time>
      </trkpt>
      <trkpt lat="46.93656" lon="4.6167">
        <ele>377</ele>
        <time>2020-05-31T18:57:46Z</time>
      </trkpt>
      <trkpt lat="46.93711" lon="4.61504">
        <ele>391</ele>
        <time>2020-05-31T19:00:34Z</time>
      </trkpt>
      <trkpt lat="46.93784" lon="4.61425">
        <ele>400</ele>
        <time>2020-05-31T19:02:36Z</time>
      </trkpt>
      <trkpt lat="46.93881" lon="4.61429">
        <ele>399</ele>
        <time>2020-05-31T19:04:45Z</time>
      </trkpt>
      <trkpt lat="46.93915" lon="4.61401">
        <ele>402</ele>
        <time>2020-05-31T19:05:37Z</time>
      </trkpt>
      <trkpt lat="46.93933" lon="4.6132">
        <ele>406</ele>
        <time>2020-05-31T19:06:55Z</time>
      </trkpt>
      <trkpt lat="46.93901" lon="4.6122">
        <ele>411</ele>
        <time>2020-05-31T19:08:35Z</time>
      </trkpt>
      <trkpt lat="46.93942" lon="4.60979">
        <ele>406</ele>
        <time>2020-05-31T19:12:22Z</time>
      </trkpt>
      <trkpt lat="46.93942" lon="4.60867">
        <ele>400</ele>
        <time>2020-05-31T19:14:04Z</time>
      </trkpt>
      <trkpt lat="46.9397" lon="4.60664">
        <ele>390</ele>
        <time>2020-05-31T19:17:12Z</time>
      </trkpt>
      <trkpt lat="46.93995" lon="4.60574">
        <ele>394</ele>
        <time>2020-05-31T19:18:41Z</time>
      </trkpt>
      <trkpt lat="46.94143" lon="4.60593">
        <ele>397</ele>
        <time>2020-05-31T19:21:59Z</time>
      </trkpt>
      <trkpt lat="46.9417" lon="4.60565">
        <ele>400</ele>
        <time>2020-05-31T19:22:43Z</time>
      </trkpt>
      <trkpt lat="46.94221" lon="4.60626">
        <ele>399</ele>
        <time>2020-05-31T19:24:11Z</time>
      </trkpt>
      <trkpt lat="46.94227" lon="4.60656">
        <ele>399</ele>
        <time>2020-05-31T19:24:40Z</time>
      </trkpt>
      <trkpt lat="46.94254" lon="4.6068">
        <ele>399</ele>
        <time>2020-05-31T19:25:22Z</time>
      </trkpt>
      <trkpt lat="46.94317" lon="4.6087">
        <ele>403</ele>
        <time>2020-05-31T19:28:34Z</time>
      </trkpt>
      <trkpt lat="46.9437" lon="4.60944">
        <ele>405</ele>
        <time>2020-05-31T19:30:12Z</time>
      </trkpt>
      <trkpt lat="46.94405" lon="4.61097">
        <ele>401</ele>
        <time>2020-05-31T19:32:39Z</time>
      </trkpt>
      <trkpt lat="46.94417" lon="4.61311">
        <ele>397</ele>
        <time>2020-05-31T19:35:55Z</time>
      </trkpt>
      <trkpt lat="46.94529" lon="4.61529">
        <ele>406</ele>
        <time>2020-05-31T19:40:03Z</time>
      </trkpt>
      <trkpt lat="46.94594" lon="4.61683">
        <ele>397</ele>
        <time>2020-05-31T19:42:48Z</time>
      </trkpt>
      <trkpt lat="46.94682" lon="4.61785">
        <ele>383</ele>
        <time>2020-05-31T19:45:18Z</time>
      </trkpt>
      <trkpt lat="46.94727" lon="4.61879">
        <ele>367</ele>
        <time>2020-05-31T19:47:02Z</time>
      </trkpt>
      <trkpt lat="46.94734" lon="4.61965">
        <ele>352</ele>
        <time>2020-05-31T19:48:21Z</time>
      </trkpt>
      <trkpt lat="46.94853" lon="4.62121">
        <ele>327</ele>
        <time>2020-05-31T19:51:54Z</time>
      </trkpt>
      <trkpt lat="46.94847" lon="4.62285">
        <ele>315</ele>
        <time>2020-05-31T19:54:24Z</time>
      </trkpt>
      <trkpt lat="46.94832" lon="4.62363">
        <ele>313</ele>
        <time>2020-05-31T19:55:38Z</time>
      </trkpt>
      <trkpt lat="46.94863" lon="4.62414">
        <ele>316</ele>
        <time>2020-05-31T19:56:40Z</time>
      </trkpt>
      <trkpt lat="46.95" lon="4.62847">
        <ele>325</ele>
        <time>2020-05-31T20:03:55Z</time>
      </trkpt>
      <trkpt lat="46.94999" lon="4.6289">
        <ele>326</ele>
        <time>2020-05-31T20:04:34Z</time>
      </trkpt>
      <trkpt lat="46.95076" lon="4.62988">
        <ele>329</ele>
        <time>2020-05-31T20:06:50Z</time>
      </trkpt>
      <trkpt lat="46.95138" lon="4.63024">
        <ele>329</ele>
        <time>2020-05-31T20:08:19Z</time>
      </trkpt>
      <trkpt lat="46.95188" lon="4.63012">
        <ele>329.9</ele>
        <time>2020-05-31T04:34:09Z</time>
      </trkpt>
      <trkpt lat="46.95188" lon="4.63012">
        <ele>329.9</ele>
        <time>2020-05-31T04:34:09Z</time>
      </trkpt>
      <trkpt lat="46.95187" lon="4.62808">
        <ele>332</ele>
        <time>2020-05-31T04:37:15Z</time>
      </trkpt>
      <trkpt lat="46.95216" lon="4.62551">
        <ele>331</ele>
        <time>2020-05-31T04:41:12Z</time>
      </trkpt>
      <trkpt lat="46.95263" lon="4.62525">
        <ele>331</ele>
        <time>2020-05-31T04:42:19Z</time>
      </trkpt>
      <trkpt lat="46.9526" lon="4.62464">
        <ele>331</ele>
        <time>2020-05-31T04:43:15Z</time>
      </trkpt>
      <trkpt lat="46.95386" lon="4.62164">
        <ele>339</ele>
        <time>2020-05-31T04:48:36Z</time>
      </trkpt>
      <trkpt lat="46.9547" lon="4.62072">
        <ele>346</ele>
        <time>2020-05-31T04:50:56Z</time>
      </trkpt>
      <trkpt lat="46.95516" lon="4.61981">
        <ele>353</ele>
        <time>2020-05-31T04:52:39Z</time>
      </trkpt>
      <trkpt lat="46.95616" lon="4.61719">
        <ele>368</ele>
        <time>2020-05-31T04:57:12Z</time>
      </trkpt>
      <trkpt lat="46.95712" lon="4.6157">
        <ele>380</ele>
        <time>2020-05-31T05:00:19Z</time>
      </trkpt>
      <trkpt lat="46.9589" lon="4.61369">
        <ele>396</ele>
        <time>2020-05-31T05:05:19Z</time>
      </trkpt>
      <trkpt lat="46.95995" lon="4.61362">
        <ele>406</ele>
        <time>2020-05-31T05:07:39Z</time>
      </trkpt>
      <trkpt lat="46.96307" lon="4.61372">
        <ele>436</ele>
        <time>2020-05-31T05:14:35Z</time>
      </trkpt>
      <trkpt lat="46.96448" lon="4.61309">
        <ele>453</ele>
        <time>2020-05-31T05:17:52Z</time>
      </trkpt>
      <trkpt lat="46.96479" lon="4.61323">
        <ele>456</ele>
        <time>2020-05-31T05:18:35Z</time>
      </trkpt>
      <trkpt lat="46.96502" lon="4.61319">
        <ele>459</ele>
        <time>2020-05-31T05:19:06Z</time>
      </trkpt>
      <trkpt lat="46.96435" lon="4.61436">
        <ele>453</ele>
        <time>2020-05-31T05:21:25Z</time>
      </trkpt>
      <trkpt lat="46.96347" lon="4.61535">
        <ele>448</ele>
        <time>2020-05-31T05:23:54Z</time>
      </trkpt>
      <trkpt lat="46.9617" lon="4.61678">
        <ele>442</ele>
        <time>2020-05-31T05:28:23Z</time>
      </trkpt>
      <trkpt lat="46.96118" lon="4.6177">
        <ele>442</ele>
        <time>2020-05-31T05:30:12Z</time>
      </trkpt>
      <trkpt lat="46.96145" lon="4.61794">
        <ele>448</ele>
        <time>2020-05-31T05:30:54Z</time>
      </trkpt>
      <trkpt lat="46.96188" lon="4.61783">
        <ele>456</ele>
        <time>2020-05-31T05:31:52Z</time>
      </trkpt>
      <trkpt lat="46.96233" lon="4.61781">
        <ele>465</ele>
        <time>2020-05-31T05:32:53Z</time>
      </trkpt>
      <trkpt lat="46.96291" lon="4.61744">
        <ele>470</ele>
        <time>2020-05-31T05:34:17Z</time>
      </trkpt>
      <trkpt lat="46.96355" lon="4.61735">
        <ele>477</ele>
        <time>2020-05-31T05:35:43Z</time>
      </trkpt>
      <trkpt lat="46.9646" lon="4.61778">
        <ele>491</ele>
        <time>2020-05-31T05:38:08Z</time>
      </trkpt>
      <trkpt lat="46.96491" lon="4.61838">
        <ele>499</ele>
        <time>2020-05-31T05:39:17Z</time>
      </trkpt>
      <trkpt lat="46.96493" lon="4.61988">
        <ele>507</ele>
        <time>2020-05-31T05:41:33Z</time>
      </trkpt>
      <trkpt lat="46.96433" lon="4.62212">
        <ele>513</ele>
        <time>2020-05-31T05:45:13Z</time>
      </trkpt>
      <trkpt lat="46.96323" lon="4.62201">
        <ele>513</ele>
        <time>2020-05-31T05:47:40Z</time>
      </trkpt>
      <trkpt lat="46.96275" lon="4.6233">
        <ele>501</ele>
        <time>2020-05-31T05:49:53Z</time>
      </trkpt>
      <trkpt lat="46.96263" lon="4.62438">
        <ele>492</ele>
        <time>2020-05-31T05:51:33Z</time>
      </trkpt>
      <trkpt lat="46.96291" lon="4.62531">
        <ele>496</ele>
        <time>2020-05-31T05:53:06Z</time>
      </trkpt>
      <trkpt lat="46.96187" lon="4.6276">
        <ele>480</ele>
        <time>2020-05-31T05:57:16Z</time>
      </trkpt>
      <trkpt lat="46.96185" lon="4.62903">
        <ele>483</ele>
        <time>2020-05-31T05:59:27Z</time>
      </trkpt>
      <trkpt lat="46.96235" lon="4.63032">
        <ele>488</ele>
        <time>2020-05-31T06:01:42Z</time>
      </trkpt>
      <trkpt lat="46.96241" lon="4.63127">
        <ele>481</ele>
        <time>2020-05-31T06:03:09Z</time>
      </trkpt>
      <trkpt lat="46.96211" lon="4.63088">
        <ele>474</ele>
        <time>2020-05-31T06:04:02Z</time>
      </trkpt>
      <trkpt lat="46.96129" lon="4.62817">
        <ele>464</ele>
        <time>2020-05-31T06:08:32Z</time>
      </trkpt>
      <trkpt lat="46.96127" lon="4.62733">
        <ele>457</ele>
        <time>2020-05-31T06:09:49Z</time>
      </trkpt>
      <trkpt lat="46.96092" lon="4.62699">
        <ele>441</ele>
        <time>2020-05-31T06:10:45Z</time>
      </trkpt>
      <trkpt lat="46.96098" lon="4.62651">
        <ele>438</ele>
        <time>2020-05-31T06:11:29Z</time>
      </trkpt>
      <trkpt lat="46.96001" lon="4.62567">
        <ele>409</ele>
        <time>2020-05-31T06:13:59Z</time>
      </trkpt>
      <trkpt lat="46.95896" lon="4.62643">
        <ele>394</ele>
        <time>2020-05-31T06:16:36Z</time>
      </trkpt>
      <trkpt lat="46.95841" lon="4.62645">
        <ele>386</ele>
        <time>2020-05-31T06:17:49Z</time>
      </trkpt>
      <trkpt lat="46.95862" lon="4.62764">
        <ele>394</ele>
        <time>2020-05-31T06:19:41Z</time>
      </trkpt>
      <trkpt lat="46.95654" lon="4.62861">
        <ele>367</ele>
        <time>2020-05-31T06:24:32Z</time>
      </trkpt>
      <trkpt lat="46.95647" lon="4.63118">
        <ele>356</ele>
        <time>2020-05-31T06:28:27Z</time>
      </trkpt>
      <trkpt lat="46.95547" lon="4.63205">
        <ele>343</ele>
        <time>2020-05-31T06:31:02Z</time>
      </trkpt>
      <trkpt lat="46.95485" lon="4.63314">
        <ele>337</ele>
        <time>2020-05-31T06:33:11Z</time>
      </trkpt>
      <trkpt lat="46.95698" lon="4.63415">
        <ele>355</ele>
        <time>2020-05-31T06:38:10Z</time>
      </trkpt>
      <trkpt lat="46.95727" lon="4.63488">
        <ele>358</ele>
        <time>2020-05-31T06:39:27Z</time>
      </trkpt>
      <trkpt lat="46.95766" lon="4.63447">
        <ele>363</ele>
        <time>2020-05-31T06:40:31Z</time>
      </trkpt>
      <trkpt lat="46.95867" lon="4.63479">
        <ele>378</ele>
        <time>2020-05-31T06:42:49Z</time>
      </trkpt>
      <trkpt lat="46.9592" lon="4.6351">
        <ele>384</ele>
        <time>2020-05-31T06:44:05Z</time>
      </trkpt>
      <trkpt lat="46.95998" lon="4.63544">
        <ele>394</ele>
        <time>2020-05-31T06:45:53Z</time>
      </trkpt>
      <trkpt lat="46.96065" lon="4.63626">
        <ele>398</ele>
        <time>2020-05-31T06:47:50Z</time>
      </trkpt>
      <trkpt lat="46.96121" lon="4.63658">
        <ele>402</ele>
        <time>2020-05-31T06:49:10Z</time>
      </trkpt>
      <trkpt lat="46.96245" lon="4.63762">
        <ele>405</ele>
        <time>2020-05-31T06:52:21Z</time>
      </trkpt>
      <trkpt lat="46.96307" lon="4.6371">
        <ele>420</ele>
        <time>2020-05-31T06:53:56Z</time>
      </trkpt>
      <trkpt lat="46.96366" lon="4.63705">
        <ele>431</ele>
        <time>2020-05-31T06:55:15Z</time>
      </trkpt>
      <trkpt lat="46.96429" lon="4.6372">
        <ele>442</ele>
        <time>2020-05-31T06:56:40Z</time>
      </trkpt>
      <trkpt lat="46.96507" lon="4.63717">
        <ele>453</ele>
        <time>2020-05-31T06:58:24Z</time>
      </trkpt>
      <trkpt lat="46.96634" lon="4.63547">
        <ele>485</ele>
        <time>2020-05-31T07:02:14Z</time>
      </trkpt>
      <trkpt lat="46.96844" lon="4.63497">
        <ele>500</ele>
        <time>2020-05-31T07:06:58Z</time>
      </trkpt>
      <trkpt lat="46.97242" lon="4.63494">
        <ele>508</ele>
        <time>2020-05-31T07:15:49Z</time>
      </trkpt>
      <trkpt lat="46.97359" lon="4.6351">
        <ele>509</ele>
        <time>2020-05-31T07:18:26Z</time>
      </trkpt>
      <trkpt lat="46.97417" lon="4.6346">
        <ele>510</ele>
        <time>2020-05-31T07:19:56Z</time>
      </trkpt>
      <trkpt lat="46.97426" lon="4.63523">
        <ele>507</ele>
        <time>2020-05-31T07:20:54Z</time>
      </trkpt>
      <trkpt lat="46.97533" lon="4.63649">
        <ele>498</ele>
        <time>2020-05-31T07:23:57Z</time>
      </trkpt>
      <trkpt lat="46.97575" lon="4.63748">
        <ele>488</ele>
        <time>2020-05-31T07:25:43Z</time>
      </trkpt>
      <trkpt lat="46.97607" lon="4.63807">
        <ele>483</ele>
        <time>2020-05-31T07:26:52Z</time>
      </trkpt>
      <trkpt lat="46.97651" lon="4.63899">
        <ele>486</ele>
        <time>2020-05-31T07:28:34Z</time>
      </trkpt>
      <trkpt lat="46.97666" lon="4.63971">
        <ele>483</ele>
        <time>2020-05-31T07:29:43Z</time>
      </trkpt>
      <trkpt lat="46.97705" lon="4.64028">
        <ele>484</ele>
        <time>2020-05-31T07:30:56Z</time>
      </trkpt>
      <trkpt lat="46.97747" lon="4.64081">
        <ele>485</ele>
        <time>2020-05-31T07:32:10Z</time>
      </trkpt>
      <trkpt lat="46.9778" lon="4.64085">
        <ele>483</ele>
        <time>2020-05-31T07:32:55Z</time>
      </trkpt>
      <trkpt lat="46.97825" lon="4.64058">
        <ele>487</ele>
        <time>2020-05-31T07:33:59Z</time>
      </trkpt>
      <trkpt lat="46.97891" lon="4.64062">
        <ele>479</ele>
        <time>2020-05-31T07:35:28Z</time>
      </trkpt>
      <trkpt lat="46.97806" lon="4.64175">
        <ele>447</ele>
        <time>2020-05-31T07:38:01Z</time>
      </trkpt>
      <trkpt lat="46.97802" lon="4.642">
        <ele>441</ele>
        <time>2020-05-31T07:38:24Z</time>
      </trkpt>
      <trkpt lat="46.97821" lon="4.64217">
        <ele>437</ele>
        <time>2020-05-31T07:38:54Z</time>
      </trkpt>
      <trkpt lat="46.9788" lon="4.64223">
        <ele>433</ele>
        <time>2020-05-31T07:40:13Z</time>
      </trkpt>
      <trkpt lat="46.98015" lon="4.64171">
        <ele>430</ele>
        <time>2020-05-31T07:43:19Z</time>
      </trkpt>
      <trkpt lat="46.98048" lon="4.64201">
        <ele>426</ele>
        <time>2020-05-31T07:44:11Z</time>
      </trkpt>
      <trkpt lat="46.98054" lon="4.64276">
        <ele>413</ele>
        <time>2020-05-31T07:45:20Z</time>
      </trkpt>
      <trkpt lat="46.98022" lon="4.64393">
        <ele>400</ele>
        <time>2020-05-31T07:47:14Z</time>
      </trkpt>
      <trkpt lat="46.98027" lon="4.64405">
        <ele>400</ele>
        <time>2020-05-31T07:47:27Z</time>
      </trkpt>
      <trkpt lat="46.9805" lon="4.64383">
        <ele>402</ele>
        <time>2020-05-31T07:48:04Z</time>
      </trkpt>
      <trkpt lat="46.98137" lon="4.6438">
        <ele>406</ele>
        <time>2020-05-31T07:50:00Z</time>
      </trkpt>
      <trkpt lat="46.98177" lon="4.64359">
        <ele>409</ele>
        <time>2020-05-31T07:50:57Z</time>
      </trkpt>
      <trkpt lat="46.98236" lon="4.64381">
        <ele>411</ele>
        <time>2020-05-31T07:52:18Z</time>
      </trkpt>
      <trkpt lat="46.98326" lon="4.64502">
        <ele>424</ele>
        <time>2020-05-31T07:55:01Z</time>
      </trkpt>
      <trkpt lat="46.98402" lon="4.64559">
        <ele>434</ele>
        <time>2020-05-31T07:56:55Z</time>
      </trkpt>
      <trkpt lat="46.98433" lon="4.646">
        <ele>434</ele>
        <time>2020-05-31T07:57:50Z</time>
      </trkpt>
      <trkpt lat="46.98503" lon="4.64662">
        <ele>440</ele>
        <time>2020-05-31T07:59:40Z</time>
      </trkpt>
      <trkpt lat="46.98568" lon="4.6479">
        <ele>440</ele>
        <time>2020-05-31T08:02:05Z</time>
      </trkpt>
      <trkpt lat="46.98578" lon="4.64892">
        <ele>437</ele>
        <time>2020-05-31T08:03:39Z</time>
      </trkpt>
      <trkpt lat="46.98579" lon="4.64985">
        <ele>442</ele>
        <time>2020-05-31T08:05:03Z</time>
      </trkpt>
      <trkpt lat="46.98575" lon="4.65126">
        <ele>457</ele>
        <time>2020-05-31T08:07:12Z</time>
      </trkpt>
      <trkpt lat="46.98504" lon="4.64985">
        <ele>455</ele>
        <time>2020-05-31T08:09:51Z</time>
      </trkpt>
      <trkpt lat="46.98421" lon="4.64909">
        <ele>458</ele>
        <time>2020-05-31T08:12:02Z</time>
      </trkpt>
      <trkpt lat="46.9831" lon="4.64859">
        <ele>456</ele>
        <time>2020-05-31T08:14:37Z</time>
      </trkpt>
      <trkpt lat="46.98198" lon="4.64761">
        <ele>448</ele>
        <time>2020-05-31T08:17:31Z</time>
      </trkpt>
      <trkpt lat="46.98117" lon="4.64716">
        <ele>448</ele>
        <time>2020-05-31T08:19:27Z</time>
      </trkpt>
      <trkpt lat="46.9807" lon="4.64675">
        <ele>441</ele>
        <time>2020-05-31T08:20:40Z</time>
      </trkpt>
      <trkpt lat="46.97964" lon="4.64662">
        <ele>417</ele>
        <time>2020-05-31T08:23:02Z</time>
      </trkpt>
      <trkpt lat="46.97911" lon="4.64578">
        <ele>398</ele>
        <time>2020-05-31T08:24:46Z</time>
      </trkpt>
      <trkpt lat="46.97825" lon="4.64531">
        <ele>393</ele>
        <time>2020-05-31T08:26:48Z</time>
      </trkpt>
      <trkpt lat="46.97844" lon="4.64728">
        <ele>405</ele>
        <time>2020-05-31T08:29:49Z</time>
      </trkpt>
      <trkpt lat="46.97878" lon="4.64874">
        <ele>416</ele>
        <time>2020-05-31T08:32:10Z</time>
      </trkpt>
      <trkpt lat="46.97896" lon="4.6497">
        <ele>421</ele>
        <time>2020-05-31T08:33:40Z</time>
      </trkpt>
      <trkpt lat="46.9787" lon="4.64997">
        <ele>428</ele>
        <time>2020-05-31T08:34:23Z</time>
      </trkpt>
      <trkpt lat="46.9781" lon="4.6502">
        <ele>441</ele>
        <time>2020-05-31T08:35:46Z</time>
      </trkpt>
      <trkpt lat="46.97778" lon="4.6508">
        <ele>456</ele>
        <time>2020-05-31T08:36:55Z</time>
      </trkpt>
      <trkpt lat="46.9771" lon="4.65126">
        <ele>477</ele>
        <time>2020-05-31T08:38:35Z</time>
      </trkpt>
      <trkpt lat="46.97674" lon="4.65133">
        <ele>486</ele>
        <time>2020-05-31T08:39:23Z</time>
      </trkpt>
      <trkpt lat="46.9761" lon="4.65099">
        <ele>495</ele>
        <time>2020-05-31T08:40:54Z</time>
      </trkpt>
      <trkpt lat="46.97568" lon="4.6511">
        <ele>504</ele>
        <time>2020-05-31T08:41:51Z</time>
      </trkpt>
      <trkpt lat="46.97539" lon="4.65094">
        <ele>507</ele>
        <time>2020-05-31T08:42:33Z</time>
      </trkpt>
      <trkpt lat="46.97535" lon="4.65073">
        <ele>505</ele>
        <time>2020-05-31T08:42:52Z</time>
      </trkpt>
      <trkpt lat="46.97548" lon="4.65042">
        <ele>498</ele>
        <time>2020-05-31T08:43:26Z</time>
      </trkpt>
      <trkpt lat="46.97456" lon="4.64982">
        <ele>497</ele>
        <time>2020-05-31T08:45:40Z</time>
      </trkpt>
      <trkpt lat="46.97407" lon="4.64997">
        <ele>504</ele>
        <time>2020-05-31T08:46:47Z</time>
      </trkpt>
      <trkpt lat="46.97374" lon="4.64956">
        <ele>495</ele>
        <time>2020-05-31T08:47:44Z</time>
      </trkpt>
      <trkpt lat="46.97337" lon="4.64985">
        <ele>503</ele>
        <time>2020-05-31T08:48:40Z</time>
      </trkpt>
      <trkpt lat="46.973" lon="4.64949">
        <ele>496</ele>
        <time>2020-05-31T08:49:40Z</time>
      </trkpt>
      <trkpt lat="46.9725" lon="4.64947">
        <ele>497</ele>
        <time>2020-05-31T08:50:46Z</time>
      </trkpt>
      <trkpt lat="46.97241" lon="4.6497">
        <ele>501</ele>
        <time>2020-05-31T08:51:11Z</time>
      </trkpt>
      <trkpt lat="46.9719" lon="4.64971">
        <ele>491</ele>
        <time>2020-05-31T08:52:19Z</time>
      </trkpt>
      <trkpt lat="46.97167" lon="4.65031">
        <ele>492</ele>
        <time>2020-05-31T08:53:21Z</time>
      </trkpt>
      <trkpt lat="46.97173" lon="4.65391">
        <ele>498</ele>
        <time>2020-05-31T08:58:49Z</time>
      </trkpt>
      <trkpt lat="46.97188" lon="4.65436">
        <ele>501</ele>
        <time>2020-05-31T08:59:35Z</time>
      </trkpt>
      <trkpt lat="46.97218" lon="4.65455">
        <ele>508</ele>
        <time>2020-05-31T09:00:18Z</time>
      </trkpt>
      <trkpt lat="46.97235" lon="4.65633">
        <ele>517</ele>
        <time>2020-05-31T09:03:02Z</time>
      </trkpt>
      <trkpt lat="46.97206" lon="4.65688">
        <ele>518</ele>
        <time>2020-05-31T09:04:05Z</time>
      </trkpt>
      <trkpt lat="46.97179" lon="4.65689">
        <ele>518</ele>
        <time>2020-05-31T09:04:41Z</time>
      </trkpt>
      <trkpt lat="46.97143" lon="4.65633">
        <ele>513</ele>
        <time>2020-05-31T09:05:52Z</time>
      </trkpt>
      <trkpt lat="46.97104" lon="4.65582">
        <ele>509</ele>
        <time>2020-05-31T09:07:01Z</time>
      </trkpt>
      <trkpt lat="46.97077" lon="4.65572">
        <ele>509</ele>
        <time>2020-05-31T09:07:38Z</time>
      </trkpt>
      <trkpt lat="46.97038" lon="4.65538">
        <ele>506</ele>
        <time>2020-05-31T09:08:39Z</time>
      </trkpt>
      <trkpt lat="46.9701" lon="4.65533">
        <ele>509</ele>
        <time>2020-05-31T09:09:17Z</time>
      </trkpt>
      <trkpt lat="46.96993" lon="4.65585">
        <ele>519</ele>
        <time>2020-05-31T09:10:09Z</time>
      </trkpt>
      <trkpt lat="46.9678" lon="4.66465">
        <ele>545</ele>
        <time>2020-05-31T09:24:19Z</time>
      </trkpt>
      <trkpt lat="46.96708" lon="4.66546">
        <ele>543</ele>
        <time>2020-05-31T09:26:21Z</time>
      </trkpt>
      <trkpt lat="46.96732" lon="4.66609">
        <ele>543</ele>
        <time>2020-05-31T09:27:26Z</time>
      </trkpt>
      <trkpt lat="46.96766" lon="4.66655">
        <ele>542</ele>
        <time>2020-05-31T09:28:28Z</time>
      </trkpt>
      <trkpt lat="46.96811" lon="4.66723">
        <ele>543</ele>
        <time>2020-05-31T09:29:54Z</time>
      </trkpt>
      <trkpt lat="46.96836" lon="4.66801">
        <ele>545</ele>
        <time>2020-05-31T09:31:13Z</time>
      </trkpt>
      <trkpt lat="46.96864" lon="4.66852">
        <ele>545</ele>
        <time>2020-05-31T09:32:12Z</time>
      </trkpt>
      <trkpt lat="46.96813" lon="4.67112">
        <ele>550</ele>
        <time>2020-05-31T09:36:19Z</time>
      </trkpt>
      <trkpt lat="46.96874" lon="4.67271">
        <ele>546</ele>
        <time>2020-05-31T09:39:05Z</time>
      </trkpt>
      <trkpt lat="46.96902" lon="4.67295">
        <ele>542</ele>
        <time>2020-05-31T09:39:48Z</time>
      </trkpt>
      <trkpt lat="46.96922" lon="4.6728">
        <ele>543</ele>
        <time>2020-05-31T09:40:18Z</time>
      </trkpt>
      <trkpt lat="46.96943" lon="4.6724">
        <ele>546</ele>
        <time>2020-05-31T09:41:04Z</time>
      </trkpt>
      <trkpt lat="46.96979" lon="4.67248">
        <ele>545</ele>
        <time>2020-05-31T09:41:53Z</time>
      </trkpt>
      <trkpt lat="46.97026" lon="4.67312">
        <ele>539</ele>
        <time>2020-05-31T09:43:18Z</time>
      </trkpt>
      <trkpt lat="46.97152" lon="4.67374">
        <ele>539</ele>
        <time>2020-05-31T09:46:16Z</time>
      </trkpt>
      <trkpt lat="46.972" lon="4.67369">
        <ele>540</ele>
        <time>2020-05-31T09:47:20Z</time>
      </trkpt>
      <trkpt lat="46.97245" lon="4.67322">
        <ele>541</ele>
        <time>2020-05-31T09:48:34Z</time>
      </trkpt>
      <trkpt lat="46.97314" lon="4.673">
        <ele>540</ele>
        <time>2020-05-31T09:50:08Z</time>
      </trkpt>
      <trkpt lat="46.97343" lon="4.67265">
        <ele>539</ele>
        <time>2020-05-31T09:50:58Z</time>
      </trkpt>
      <trkpt lat="46.97433" lon="4.67184">
        <ele>538</ele>
        <time>2020-05-31T09:53:19Z</time>
      </trkpt>
      <trkpt lat="46.97487" lon="4.67092">
        <ele>537</ele>
        <time>2020-05-31T09:55:09Z</time>
      </trkpt>
      <trkpt lat="46.97533" lon="4.67035">
        <ele>539</ele>
        <time>2020-05-31T09:56:30Z</time>
      </trkpt>
      <trkpt lat="46.97631" lon="4.66962">
        <ele>545</ele>
        <time>2020-05-31T09:58:56Z</time>
      </trkpt>
      <trkpt lat="46.977" lon="4.66936">
        <ele>548</ele>
        <time>2020-05-31T10:00:32Z</time>
      </trkpt>
      <trkpt lat="46.97714" lon="4.66953">
        <ele>549</ele>
        <time>2020-05-31T10:00:56Z</time>
      </trkpt>
      <trkpt lat="46.97717" lon="4.6712">
        <ele>551</ele>
        <time>2020-05-31T10:03:28Z</time>
      </trkpt>
      <trkpt lat="46.97747" lon="4.67191">
        <ele>553</ele>
        <time>2020-05-31T10:04:44Z</time>
      </trkpt>
      <trkpt lat="46.97772" lon="4.67279">
        <ele>554</ele>
        <time>2020-05-31T10:06:11Z</time>
      </trkpt>
      <trkpt lat="46.97882" lon="4.67289">
        <ele>556</ele>
        <time>2020-05-31T10:08:38Z</time>
      </trkpt>
      <trkpt lat="46.97902" lon="4.67306">
        <ele>556</ele>
        <time>2020-05-31T10:09:09Z</time>
      </trkpt>
      <trkpt lat="46.97917" lon="4.67435">
        <ele>555</ele>
        <time>2020-05-31T10:11:08Z</time>
      </trkpt>
      <trkpt lat="46.97847" lon="4.67588">
        <ele>540</ele>
        <time>2020-05-31T10:13:56Z</time>
      </trkpt>
      <trkpt lat="46.97845" lon="4.67668">
        <ele>534</ele>
        <time>2020-05-31T10:15:08Z</time>
      </trkpt>
      <trkpt lat="46.97815" lon="4.67744">
        <ele>523</ele>
        <time>2020-05-31T10:16:28Z</time>
      </trkpt>
      <trkpt lat="46.97817" lon="4.67799">
        <ele>515</ele>
        <time>2020-05-31T10:17:18Z</time>
      </trkpt>
      <trkpt lat="46.97808" lon="4.67792">
        <ele>514</ele>
        <time>2020-05-31T10:17:32Z</time>
      </trkpt>
      <trkpt lat="46.97794" lon="4.6775">
        <ele>520</ele>
        <time>2020-05-31T10:18:15Z</time>
      </trkpt>
      <trkpt lat="46.97734" lon="4.67762">
        <ele>510</ele>
        <time>2020-05-31T10:19:35Z</time>
      </trkpt>
      <trkpt lat="46.97684" lon="4.67803">
        <ele>498</ele>
        <time>2020-05-31T10:20:52Z</time>
      </trkpt>
      <trkpt lat="46.97607" lon="4.67801">
        <ele>499</ele>
        <time>2020-05-31T10:22:35Z</time>
      </trkpt>
      <trkpt lat="46.97549" lon="4.67769">
        <ele>504</ele>
        <time>2020-05-31T10:23:57Z</time>
      </trkpt>
      <trkpt lat="46.97511" lon="4.67743">
        <ele>509</ele>
        <time>2020-05-31T10:24:53Z</time>
      </trkpt>
      <trkpt lat="46.97449" lon="4.67761">
        <ele>504</ele>
        <time>2020-05-31T10:26:18Z</time>
      </trkpt>
      <trkpt lat="46.97373" lon="4.6776">
        <ele>502</ele>
        <time>2020-05-31T10:27:59Z</time>
      </trkpt>
      <trkpt lat="46.97301" lon="4.67885">
        <ele>471</ele>
        <time>2020-05-31T10:30:28Z</time>
      </trkpt>
      <trkpt lat="46.97286" lon="4.67963">
        <ele>458</ele>
        <time>2020-05-31T10:31:42Z</time>
      </trkpt>
      <trkpt lat="46.97255" lon="4.68024">
        <ele>450</ele>
        <time>2020-05-31T10:32:51Z</time>
      </trkpt>
      <trkpt lat="46.9721" lon="4.6805">
        <ele>447</ele>
        <time>2020-05-31T10:33:56Z</time>
      </trkpt>
      <trkpt lat="46.97086" lon="4.68255">
        <ele>423</ele>
        <time>2020-05-31T10:38:05Z</time>
      </trkpt>
      <trkpt lat="46.96999" lon="4.68302">
        <ele>421</ele>
        <time>2020-05-31T10:40:09Z</time>
      </trkpt>
      <trkpt lat="46.96935" lon="4.68368">
        <ele>415</ele>
        <time>2020-05-31T10:41:53Z</time>
      </trkpt>
      <trkpt lat="46.96915" lon="4.68377">
        <ele>414</ele>
        <time>2020-05-31T10:42:21Z</time>
      </trkpt>
      <trkpt lat="46.96924" lon="4.68404">
        <ele>411</ele>
        <time>2020-05-31T10:42:49Z</time>
      </trkpt>
      <trkpt lat="46.96956" lon="4.6842">
        <ele>409</ele>
        <time>2020-05-31T10:43:34Z</time>
      </trkpt>
      <trkpt lat="46.9701" lon="4.68439">
        <ele>405</ele>
        <time>2020-05-31T10:44:48Z</time>
      </trkpt>
      <trkpt lat="46.97011" lon="4.6852">
        <ele>397</ele>
        <time>2020-05-31T10:46:02Z</time>
      </trkpt>
      <trkpt lat="46.96984" lon="4.68688">
        <ele>390</ele>
        <time>2020-05-31T10:48:39Z</time>
      </trkpt>
      <trkpt lat="46.97034" lon="4.68782">
        <ele>387</ele>
        <time>2020-05-31T10:50:27Z</time>
      </trkpt>
      <trkpt lat="46.9704" lon="4.6881">
        <ele>388</ele>
        <time>2020-05-31T10:50:54Z</time>
      </trkpt>
      <trkpt lat="46.9703" lon="4.68823">
        <ele>390</ele>
        <time>2020-05-31T10:51:12Z</time>
      </trkpt>
      <trkpt lat="46.96985" lon="4.68826">
        <ele>397</ele>
        <time>2020-05-31T10:52:12Z</time>
      </trkpt>
      <trkpt lat="46.96947" lon="4.68837">
        <ele>401</ele>
        <time>2020-05-31T10:53:04Z</time>
      </trkpt>
      <trkpt lat="46.96902" lon="4.68867">
        <ele>403</ele>
        <time>2020-05-31T10:54:10Z</time>
      </trkpt>
      <trkpt lat="46.96875" lon="4.68951">
        <ele>403</ele>
        <time>2020-05-31T10:55:34Z</time>
      </trkpt>
      <trkpt lat="46.96852" lon="4.68975">
        <ele>404</ele>
        <time>2020-05-31T10:56:12Z</time>
      </trkpt>
      <trkpt lat="46.96762" lon="4.68895">
        <ele>415</ele>
        <time>2020-05-31T10:58:32Z</time>
      </trkpt>
      <trkpt lat="46.96652" lon="4.68737">
        <ele>424</ele>
        <time>2020-05-31T11:01:58Z</time>
      </trkpt>
      <trkpt lat="46.96653" lon="4.68703">
        <ele>424</ele>
        <time>2020-05-31T11:02:29Z</time>
      </trkpt>
      <trkpt lat="46.9645" lon="4.68523">
        <ele>445</ele>
        <time>2020-05-31T11:07:45Z</time>
      </trkpt>
      <trkpt lat="46.96411" lon="4.68456">
        <ele>454</ele>
        <time>2020-05-31T11:09:06Z</time>
      </trkpt>
      <trkpt lat="46.96357" lon="4.68404">
        <ele>461</ele>
        <time>2020-05-31T11:10:32Z</time>
      </trkpt>
      <trkpt lat="46.96333" lon="4.68317">
        <ele>467</ele>
        <time>2020-05-31T11:11:57Z</time>
      </trkpt>
      <trkpt lat="46.96194" lon="4.68223">
        <ele>472</ele>
        <time>2020-05-31T11:15:22Z</time>
      </trkpt>
      <trkpt lat="46.96121" lon="4.68198">
        <ele>465</ele>
        <time>2020-05-31T11:17:02Z</time>
      </trkpt>
      <trkpt lat="46.9607" lon="4.68206">
        <ele>460</ele>
        <time>2020-05-31T11:18:10Z</time>
      </trkpt>
      <trkpt lat="46.96022" lon="4.68235">
        <ele>453</ele>
        <time>2020-05-31T11:19:19Z</time>
      </trkpt>
      <trkpt lat="46.95999" lon="4.68229">
        <ele>449</ele>
        <time>2020-05-31T11:19:51Z</time>
      </trkpt>
      <trkpt lat="46.95991" lon="4.68206">
        <ele>448</ele>
        <time>2020-05-31T11:20:14Z</time>
      </trkpt>
      <trkpt lat="46.95989" lon="4.68127">
        <ele>444</ele>
        <time>2020-05-31T11:21:26Z</time>
      </trkpt>
      <trkpt lat="46.96044" lon="4.68086">
        <ele>444</ele>
        <time>2020-05-31T11:22:48Z</time>
      </trkpt>
      <trkpt lat="46.96059" lon="4.68031">
        <ele>434</ele>
        <time>2020-05-31T11:23:42Z</time>
      </trkpt>
      <trkpt lat="46.95976" lon="4.68026">
        <ele>427</ele>
        <time>2020-05-31T11:25:33Z</time>
      </trkpt>
    </trkseg>
  </trk>
</gpx>